sensor_id;sensor_type;location;lat;lon;timestamp;P1;durP1;ratioP1;P2;durP2;ratioP2
45792;SDS011;31495;42.740;22.908;2022-11-15T00:00:28;46.30;;;21.90;;
45792;SDS011;31495;42.740;22.908;2022-11-15T00:01:27;49.10;;;20.42;;
45792;SDS011;31495;42.740;22.908;2022-11-15T00:02:27;39.33;;;20.33;;
45792;SDS011;31495;42.740;22.908;2022-11-15T00:03:27;39.25;;;19.15;;
45792;SDS011;31495;42.740;22.908;2022-11-15T00:04:26;35.30;;;18.48;;
45792;SDS011;31495;42.740;22.908;2022-11-15T00:05:26;37.75;;;18.48;;
45792;SDS011;31495;42.740;22.908;2022-11-15T00:06:25;37.25;;;16.98;;
45792;SDS011;31495;42.740;22.908;2022-11-15T00:07:24;37.55;;;17.90;;
45792;SDS011;31495;42.740;22.908;2022-11-15T00:08:24;36.53;;;19.20;;
45792;SDS011;31495;42.740;22.908;2022-11-15T00:09:23;36.38;;;18.23;;
45792;SDS011;31495;42.740;22.908;2022-11-15T00:10:22;48.13;;;19.58;;
45792;SDS011;31495;42.740;22.908;2022-11-15T00:11:22;35.38;;;17.95;;
45792;SDS011;31495;42.740;22.908;2022-11-15T00:12:21;31.63;;;16.10;;
45792;SDS011;31495;42.740;22.908;2022-11-15T00:13:21;35.60;;;16.98;;
45792;SDS011;31495;42.740;22.908;2022-11-15T00:14:20;32.33;;;15.43;;
45792;SDS011;31495;42.740;22.908;2022-11-15T00:15:20;32.17;;;16.25;;
45792;SDS011;31495;42.740;22.908;2022-11-15T00:16:19;29.77;;;14.90;;
45792;SDS011;31495;42.740;22.908;2022-11-15T00:17:18;34.90;;;16.92;;
45792;SDS011;31495;42.740;22.908;2022-11-15T00:18:18;32.58;;;16.98;;
45792;SDS011;31495;42.740;22.908;2022-11-15T00:19:18;31.85;;;15.77;;
45792;SDS011;31495;42.740;22.908;2022-11-15T00:20:17;29.95;;;15.45;;
45792;SDS011;31495;42.740;22.908;2022-11-15T00:21:17;35.53;;;17.77;;
45792;SDS011;31495;42.740;22.908;2022-11-15T00:22:16;36.70;;;18.92;;
45792;SDS011;31495;42.740;22.908;2022-11-15T00:23:16;38.97;;;20.05;;
45792;SDS011;31495;42.740;22.908;2022-11-15T00:24:15;34.60;;;18.95;;
45792;SDS011;31495;42.740;22.908;2022-11-15T00:25:15;37.65;;;19.30;;
45792;SDS011;31495;42.740;22.908;2022-11-15T00:26:14;36.13;;;18.85;;
45792;SDS011;31495;42.740;22.908;2022-11-15T00:27:14;38.90;;;19.23;;
45792;SDS011;31495;42.740;22.908;2022-11-15T00:28:14;38.53;;;19.38;;
45792;SDS011;31495;42.740;22.908;2022-11-15T00:29:13;38.53;;;19.02;;
45792;SDS011;31495;42.740;22.908;2022-11-15T00:30:12;38.88;;;19.60;;
45792;SDS011;31495;42.740;22.908;2022-11-15T00:31:13;37.00;;;18.42;;
45792;SDS011;31495;42.740;22.908;2022-11-15T00:32:13;33.10;;;16.10;;
45792;SDS011;31495;42.740;22.908;2022-11-15T00:33:12;33.33;;;18.30;;
45792;SDS011;31495;42.740;22.908;2022-11-15T00:34:12;41.15;;;18.73;;
45792;SDS011;31495;42.740;22.908;2022-11-15T00:35:11;39.58;;;18.40;;
45792;SDS011;31495;42.740;22.908;2022-11-15T00:36:11;36.45;;;18.58;;
45792;SDS011;31495;42.740;22.908;2022-11-15T00:37:10;38.60;;;17.80;;
45792;SDS011;31495;42.740;22.908;2022-11-15T00:38:10;39.72;;;19.33;;
45792;SDS011;31495;42.740;22.908;2022-11-15T00:39:09;40.38;;;19.02;;
45792;SDS011;31495;42.740;22.908;2022-11-15T00:40:09;38.58;;;18.88;;
45792;SDS011;31495;42.740;22.908;2022-11-15T00:41:09;43.28;;;17.98;;
45792;SDS011;31495;42.740;22.908;2022-11-15T00:42:09;39.95;;;18.27;;
45792;SDS011;31495;42.740;22.908;2022-11-15T00:43:08;39.20;;;18.73;;
45792;SDS011;31495;42.740;22.908;2022-11-15T00:44:08;40.92;;;17.55;;
45792;SDS011;31495;42.740;22.908;2022-11-15T00:45:07;39.22;;;18.20;;
45792;SDS011;31495;42.740;22.908;2022-11-15T00:46:08;44.05;;;19.33;;
45792;SDS011;31495;42.740;22.908;2022-11-15T00:47:08;41.80;;;18.95;;
45792;SDS011;31495;42.740;22.908;2022-11-15T00:48:08;35.50;;;18.38;;
45792;SDS011;31495;42.740;22.908;2022-11-15T00:49:08;39.03;;;18.75;;
45792;SDS011;31495;42.740;22.908;2022-11-15T00:50:08;33.72;;;16.15;;
45792;SDS011;31495;42.740;22.908;2022-11-15T00:51:07;34.13;;;17.65;;
45792;SDS011;31495;42.740;22.908;2022-11-15T00:52:07;40.45;;;20.73;;
45792;SDS011;31495;42.740;22.908;2022-11-15T00:53:06;31.73;;;15.93;;
45792;SDS011;31495;42.740;22.908;2022-11-15T00:54:06;35.53;;;16.13;;
45792;SDS011;31495;42.740;22.908;2022-11-15T00:55:06;39.55;;;19.15;;
45792;SDS011;31495;42.740;22.908;2022-11-15T00:56:05;42.58;;;17.77;;
45792;SDS011;31495;42.740;22.908;2022-11-15T00:57:05;33.55;;;15.90;;
45792;SDS011;31495;42.740;22.908;2022-11-15T00:58:04;34.28;;;17.48;;
45792;SDS011;31495;42.740;22.908;2022-11-15T00:59:04;41.50;;;19.15;;
45792;SDS011;31495;42.740;22.908;2022-11-15T01:00:03;33.63;;;17.05;;
45792;SDS011;31495;42.740;22.908;2022-11-15T01:01:11;35.05;;;18.08;;
45792;SDS011;31495;42.740;22.908;2022-11-15T01:02:12;38.15;;;17.65;;
45792;SDS011;31495;42.740;22.908;2022-11-15T01:03:12;33.90;;;16.40;;
45792;SDS011;31495;42.740;22.908;2022-11-15T01:04:11;35.30;;;16.77;;
45792;SDS011;31495;42.740;22.908;2022-11-15T01:05:10;35.90;;;17.02;;
45792;SDS011;31495;42.740;22.908;2022-11-15T01:06:10;35.72;;;18.80;;
45792;SDS011;31495;42.740;22.908;2022-11-15T01:07:10;32.42;;;16.98;;
45792;SDS011;31495;42.740;22.908;2022-11-15T01:08:13;36.40;;;17.60;;
45792;SDS011;31495;42.740;22.908;2022-11-15T01:09:13;38.45;;;17.73;;
45792;SDS011;31495;42.740;22.908;2022-11-15T01:10:13;37.28;;;18.30;;
45792;SDS011;31495;42.740;22.908;2022-11-15T01:11:12;42.78;;;18.73;;
45792;SDS011;31495;42.740;22.908;2022-11-15T01:12:12;39.38;;;17.73;;
45792;SDS011;31495;42.740;22.908;2022-11-15T01:13:11;36.88;;;18.38;;
45792;SDS011;31495;42.740;22.908;2022-11-15T01:14:11;43.55;;;19.98;;
45792;SDS011;31495;42.740;22.908;2022-11-15T01:15:10;44.50;;;19.30;;
45792;SDS011;31495;42.740;22.908;2022-11-15T01:16:12;37.40;;;19.63;;
45792;SDS011;31495;42.740;22.908;2022-11-15T01:17:15;38.22;;;18.92;;
45792;SDS011;31495;42.740;22.908;2022-11-15T01:18:14;39.58;;;20.52;;
45792;SDS011;31495;42.740;22.908;2022-11-15T01:19:14;43.15;;;20.90;;
45792;SDS011;31495;42.740;22.908;2022-11-15T01:20:13;41.72;;;20.38;;
45792;SDS011;31495;42.740;22.908;2022-11-15T01:21:14;43.67;;;19.90;;
45792;SDS011;31495;42.740;22.908;2022-11-15T01:22:15;39.97;;;19.80;;
45792;SDS011;31495;42.740;22.908;2022-11-15T01:23:14;37.67;;;19.10;;
45792;SDS011;31495;42.740;22.908;2022-11-15T01:24:13;38.15;;;18.50;;
45792;SDS011;31495;42.740;22.908;2022-11-15T01:25:13;37.25;;;17.73;;
45792;SDS011;31495;42.740;22.908;2022-11-15T01:26:13;36.25;;;17.40;;
45792;SDS011;31495;42.740;22.908;2022-11-15T01:27:14;33.28;;;17.08;;
45792;SDS011;31495;42.740;22.908;2022-11-15T01:28:13;38.05;;;19.40;;
45792;SDS011;31495;42.740;22.908;2022-11-15T01:29:12;39.17;;;19.08;;
45792;SDS011;31495;42.740;22.908;2022-11-15T01:30:12;36.25;;;20.67;;
45792;SDS011;31495;42.740;22.908;2022-11-15T01:31:12;44.20;;;21.48;;
45792;SDS011;31495;42.740;22.908;2022-11-15T01:32:13;43.13;;;21.20;;
45792;SDS011;31495;42.740;22.908;2022-11-15T01:33:13;44.20;;;20.70;;
45792;SDS011;31495;42.740;22.908;2022-11-15T01:34:12;34.78;;;17.35;;
45792;SDS011;31495;42.740;22.908;2022-11-15T01:35:11;32.20;;;15.57;;
45792;SDS011;31495;42.740;22.908;2022-11-15T01:36:12;27.02;;;14.07;;
45792;SDS011;31495;42.740;22.908;2022-11-15T01:37:14;25.08;;;12.73;;
45792;SDS011;31495;42.740;22.908;2022-11-15T01:38:13;29.98;;;13.80;;
45792;SDS011;31495;42.740;22.908;2022-11-15T01:39:13;28.38;;;12.77;;
45792;SDS011;31495;42.740;22.908;2022-11-15T01:40:12;39.33;;;17.85;;
45792;SDS011;31495;42.740;22.908;2022-11-15T01:41:16;38.50;;;17.25;;
45792;SDS011;31495;42.740;22.908;2022-11-15T01:42:17;33.35;;;16.25;;
45792;SDS011;31495;42.740;22.908;2022-11-15T01:43:21;32.65;;;15.48;;
45792;SDS011;31495;42.740;22.908;2022-11-15T01:45:32;29.40;;;15.60;;
45792;SDS011;31495;42.740;22.908;2022-11-15T01:46:35;35.03;;;16.10;;
45792;SDS011;31495;42.740;22.908;2022-11-15T01:47:37;32.40;;;17.10;;
45792;SDS011;31495;42.740;22.908;2022-11-15T01:48:39;40.28;;;17.23;;
45792;SDS011;31495;42.740;22.908;2022-11-15T01:49:40;33.88;;;17.13;;
45792;SDS011;31495;42.740;22.908;2022-11-15T01:50:48;35.22;;;15.52;;
45792;SDS011;31495;42.740;22.908;2022-11-15T01:51:48;36.45;;;17.83;;
45792;SDS011;31495;42.740;22.908;2022-11-15T01:52:48;26.98;;;13.65;;
45792;SDS011;31495;42.740;22.908;2022-11-15T01:53:48;29.10;;;14.13;;
45792;SDS011;31495;42.740;22.908;2022-11-15T01:55:02;34.33;;;18.08;;
45792;SDS011;31495;42.740;22.908;2022-11-15T01:56:03;38.25;;;17.55;;
45792;SDS011;31495;42.740;22.908;2022-11-15T01:57:09;34.58;;;17.55;;
45792;SDS011;31495;42.740;22.908;2022-11-15T01:58:11;34.95;;;17.42;;
45792;SDS011;31495;42.740;22.908;2022-11-15T01:59:10;36.25;;;16.92;;
45792;SDS011;31495;42.740;22.908;2022-11-15T02:00:10;33.45;;;17.08;;
45792;SDS011;31495;42.740;22.908;2022-11-15T02:01:11;30.08;;;15.52;;
45792;SDS011;31495;42.740;22.908;2022-11-15T02:02:12;33.45;;;15.82;;
45792;SDS011;31495;42.740;22.908;2022-11-15T02:03:13;34.70;;;16.83;;
45792;SDS011;31495;42.740;22.908;2022-11-15T02:04:13;26.88;;;14.65;;
45792;SDS011;31495;42.740;22.908;2022-11-15T02:05:16;39.67;;;16.92;;
45792;SDS011;31495;42.740;22.908;2022-11-15T02:06:15;28.63;;;15.73;;
45792;SDS011;31495;42.740;22.908;2022-11-15T02:07:15;32.63;;;16.10;;
45792;SDS011;31495;42.740;22.908;2022-11-15T02:08:16;33.25;;;16.40;;
45792;SDS011;31495;42.740;22.908;2022-11-15T02:09:19;33.00;;;16.52;;
45792;SDS011;31495;42.740;22.908;2022-11-15T02:10:20;35.70;;;16.45;;
45792;SDS011;31495;42.740;22.908;2022-11-15T02:11:20;28.83;;;16.52;;
45792;SDS011;31495;42.740;22.908;2022-11-15T02:12:21;35.03;;;18.08;;
45792;SDS011;31495;42.740;22.908;2022-11-15T02:13:21;41.53;;;21.10;;
45792;SDS011;31495;42.740;22.908;2022-11-15T02:14:21;36.67;;;19.67;;
45792;SDS011;31495;42.740;22.908;2022-11-15T02:15:24;39.47;;;18.15;;
45792;SDS011;31495;42.740;22.908;2022-11-15T02:16:43;37.25;;;19.35;;
45792;SDS011;31495;42.740;22.908;2022-11-15T02:18:22;35.78;;;17.23;;
45792;SDS011;31495;42.740;22.908;2022-11-15T02:28:42;20.65;;;11.15;;
45792;SDS011;31495;42.740;22.908;2022-11-15T02:35:52;20.05;;;9.60;;
45792;SDS011;31495;42.740;22.908;2022-11-15T02:38:29;20.65;;;9.40;;
45792;SDS011;31495;42.740;22.908;2022-11-15T02:39:50;21.15;;;9.82;;
45792;SDS011;31495;42.740;22.908;2022-11-15T02:41:14;18.25;;;9.93;;
45792;SDS011;31495;42.740;22.908;2022-11-15T02:42:19;23.90;;;11.02;;
45792;SDS011;31495;42.740;22.908;2022-11-15T02:45:17;30.63;;;14.38;;
45792;SDS011;31495;42.740;22.908;2022-11-15T02:46:23;25.45;;;12.40;;
45792;SDS011;31495;42.740;22.908;2022-11-15T02:47:57;24.70;;;12.65;;
45792;SDS011;31495;42.740;22.908;2022-11-15T02:49:00;30.63;;;14.55;;
45792;SDS011;31495;42.740;22.908;2022-11-15T02:50:07;27.70;;;13.75;;
45792;SDS011;31495;42.740;22.908;2022-11-15T02:51:10;28.08;;;14.18;;
45792;SDS011;31495;42.740;22.908;2022-11-15T02:52:14;30.13;;;15.02;;
45792;SDS011;31495;42.740;22.908;2022-11-15T02:53:15;27.52;;;13.80;;
45792;SDS011;31495;42.740;22.908;2022-11-15T02:54:15;29.08;;;14.98;;
45792;SDS011;31495;42.740;22.908;2022-11-15T02:55:28;31.83;;;15.82;;
45792;SDS011;31495;42.740;22.908;2022-11-15T02:56:29;30.90;;;15.32;;
45792;SDS011;31495;42.740;22.908;2022-11-15T03:00:09;24.67;;;12.50;;
45792;SDS011;31495;42.740;22.908;2022-11-15T03:01:24;20.67;;;10.45;;
45792;SDS011;31495;42.740;22.908;2022-11-15T03:05:19;28.90;;;13.38;;
45792;SDS011;31495;42.740;22.908;2022-11-15T03:06:47;25.38;;;12.02;;
45792;SDS011;31495;42.740;22.908;2022-11-15T03:10:07;25.20;;;12.18;;
45792;SDS011;31495;42.740;22.908;2022-11-15T03:11:19;26.95;;;13.55;;
45792;SDS011;31495;42.740;22.908;2022-11-15T03:12:28;31.25;;;12.95;;
45792;SDS011;31495;42.740;22.908;2022-11-15T03:13:36;26.30;;;13.10;;
45792;SDS011;31495;42.740;22.908;2022-11-15T03:14:45;22.95;;;10.80;;
45792;SDS011;31495;42.740;22.908;2022-11-15T03:17:36;22.40;;;10.57;;
45792;SDS011;31495;42.740;22.908;2022-11-15T03:18:43;21.58;;;10.25;;
45792;SDS011;31495;42.740;22.908;2022-11-15T03:19:49;21.25;;;10.93;;
45792;SDS011;31495;42.740;22.908;2022-11-15T03:20:52;23.90;;;11.05;;
45792;SDS011;31495;42.740;22.908;2022-11-15T03:21:53;19.63;;;9.85;;
45792;SDS011;31495;42.740;22.908;2022-11-15T03:23:57;20.88;;;9.38;;
45792;SDS011;31495;42.740;22.908;2022-11-15T03:25:02;23.33;;;9.32;;
45792;SDS011;31495;42.740;22.908;2022-11-15T03:26:08;16.15;;;8.88;;
45792;SDS011;31495;42.740;22.908;2022-11-15T03:27:12;20.90;;;9.30;;
45792;SDS011;31495;42.740;22.908;2022-11-15T03:28:18;23.45;;;10.90;;
45792;SDS011;31495;42.740;22.908;2022-11-15T03:29:24;18.30;;;9.25;;
45792;SDS011;31495;42.740;22.908;2022-11-15T03:30:27;19.13;;;9.65;;
45792;SDS011;31495;42.740;22.908;2022-11-15T03:31:30;20.38;;;10.48;;
45792;SDS011;31495;42.740;22.908;2022-11-15T03:32:52;22.70;;;11.45;;
45792;SDS011;31495;42.740;22.908;2022-11-15T03:33:55;19.42;;;9.98;;
45792;SDS011;31495;42.740;22.908;2022-11-15T03:35:07;24.08;;;10.75;;
45792;SDS011;31495;42.740;22.908;2022-11-15T03:36:16;18.50;;;9.48;;
45792;SDS011;31495;42.740;22.908;2022-11-15T03:37:16;24.33;;;10.98;;
45792;SDS011;31495;42.740;22.908;2022-11-15T03:38:26;19.95;;;9.95;;
45792;SDS011;31495;42.740;22.908;2022-11-15T03:39:30;19.73;;;9.63;;
45792;SDS011;31495;42.740;22.908;2022-11-15T03:40:33;21.05;;;10.32;;
45792;SDS011;31495;42.740;22.908;2022-11-15T03:41:43;23.33;;;9.55;;
45792;SDS011;31495;42.740;22.908;2022-11-15T03:42:54;21.45;;;11.75;;
45792;SDS011;31495;42.740;22.908;2022-11-15T03:44:01;31.27;;;13.07;;
45792;SDS011;31495;42.740;22.908;2022-11-15T03:45:10;27.13;;;12.88;;
45792;SDS011;31495;42.740;22.908;2022-11-15T03:47:58;29.90;;;13.93;;
45792;SDS011;31495;42.740;22.908;2022-11-15T03:48:54;28.73;;;13.50;;
45792;SDS011;31495;42.740;22.908;2022-11-15T03:50:09;26.67;;;13.23;;
45792;SDS011;31495;42.740;22.908;2022-11-15T03:51:11;27.00;;;13.10;;
45792;SDS011;31495;42.740;22.908;2022-11-15T03:52:11;30.83;;;14.30;;
45792;SDS011;31495;42.740;22.908;2022-11-15T03:53:12;29.95;;;15.45;;
45792;SDS011;31495;42.740;22.908;2022-11-15T03:54:12;24.95;;;14.07;;
45792;SDS011;31495;42.740;22.908;2022-11-15T03:55:14;30.23;;;14.73;;
45792;SDS011;31495;42.740;22.908;2022-11-15T03:56:16;30.13;;;13.88;;
45792;SDS011;31495;42.740;22.908;2022-11-15T03:57:15;26.15;;;13.50;;
45792;SDS011;31495;42.740;22.908;2022-11-15T03:58:15;28.40;;;14.30;;
45792;SDS011;31495;42.740;22.908;2022-11-15T03:59:15;23.15;;;13.27;;
45792;SDS011;31495;42.740;22.908;2022-11-15T04:00:15;21.70;;;11.48;;
45792;SDS011;31495;42.740;22.908;2022-11-15T04:01:15;25.50;;;11.90;;
45792;SDS011;31495;42.740;22.908;2022-11-15T04:02:14;22.05;;;12.10;;
45792;SDS011;31495;42.740;22.908;2022-11-15T04:03:13;21.80;;;11.73;;
45792;SDS011;31495;42.740;22.908;2022-11-15T04:04:13;28.52;;;15.20;;
45792;SDS011;31495;42.740;22.908;2022-11-15T04:05:12;27.13;;;13.48;;
45792;SDS011;31495;42.740;22.908;2022-11-15T04:06:12;27.83;;;13.45;;
45792;SDS011;31495;42.740;22.908;2022-11-15T04:07:11;29.95;;;15.57;;
45792;SDS011;31495;42.740;22.908;2022-11-15T04:08:11;26.67;;;14.55;;
45792;SDS011;31495;42.740;22.908;2022-11-15T04:09:10;23.60;;;11.93;;
45792;SDS011;31495;42.740;22.908;2022-11-15T04:10:10;23.10;;;11.32;;
45792;SDS011;31495;42.740;22.908;2022-11-15T04:11:11;25.65;;;12.38;;
45792;SDS011;31495;42.740;22.908;2022-11-15T04:12:10;28.20;;;12.75;;
45792;SDS011;31495;42.740;22.908;2022-11-15T04:13:09;26.90;;;12.38;;
45792;SDS011;31495;42.740;22.908;2022-11-15T04:14:09;26.88;;;12.75;;
45792;SDS011;31495;42.740;22.908;2022-11-15T04:15:10;25.17;;;13.48;;
45792;SDS011;31495;42.740;22.908;2022-11-15T04:16:11;25.50;;;13.30;;
45792;SDS011;31495;42.740;22.908;2022-11-15T04:17:11;24.70;;;13.32;;
45792;SDS011;31495;42.740;22.908;2022-11-15T04:18:10;23.30;;;12.27;;
45792;SDS011;31495;42.740;22.908;2022-11-15T04:19:10;27.00;;;13.05;;
45792;SDS011;31495;42.740;22.908;2022-11-15T04:20:29;29.98;;;12.18;;
45792;SDS011;31495;42.740;22.908;2022-11-15T04:21:48;34.70;;;12.88;;
45792;SDS011;31495;42.740;22.908;2022-11-15T04:23:14;24.10;;;12.15;;
45792;SDS011;31495;42.740;22.908;2022-11-15T04:24:34;28.15;;;12.43;;
45792;SDS011;31495;42.740;22.908;2022-11-15T04:25:33;26.73;;;13.00;;
45792;SDS011;31495;42.740;22.908;2022-11-15T04:26:32;27.55;;;13.35;;
45792;SDS011;31495;42.740;22.908;2022-11-15T04:27:33;29.55;;;13.38;;
45792;SDS011;31495;42.740;22.908;2022-11-15T04:28:32;34.03;;;15.38;;
45792;SDS011;31495;42.740;22.908;2022-11-15T04:29:32;31.17;;;14.80;;
45792;SDS011;31495;42.740;22.908;2022-11-15T04:30:34;28.55;;;12.73;;
45792;SDS011;31495;42.740;22.908;2022-11-15T04:31:34;29.52;;;13.23;;
45792;SDS011;31495;42.740;22.908;2022-11-15T04:32:33;26.00;;;12.07;;
45792;SDS011;31495;42.740;22.908;2022-11-15T04:33:33;25.58;;;12.48;;
45792;SDS011;31495;42.740;22.908;2022-11-15T04:34:32;25.92;;;12.68;;
45792;SDS011;31495;42.740;22.908;2022-11-15T04:35:32;33.85;;;13.23;;
45792;SDS011;31495;42.740;22.908;2022-11-15T04:36:32;32.85;;;14.27;;
45792;SDS011;31495;42.740;22.908;2022-11-15T04:37:50;34.25;;;13.63;;
45792;SDS011;31495;42.740;22.908;2022-11-15T04:38:49;32.13;;;13.40;;
45792;SDS011;31495;42.740;22.908;2022-11-15T04:39:49;35.75;;;16.27;;
45792;SDS011;31495;42.740;22.908;2022-11-15T04:40:48;30.67;;;14.45;;
45792;SDS011;31495;42.740;22.908;2022-11-15T04:41:48;35.00;;;16.05;;
45792;SDS011;31495;42.740;22.908;2022-11-15T04:42:47;35.35;;;16.77;;
45792;SDS011;31495;42.740;22.908;2022-11-15T04:43:47;33.67;;;14.93;;
45792;SDS011;31495;42.740;22.908;2022-11-15T04:44:46;32.03;;;16.75;;
45792;SDS011;31495;42.740;22.908;2022-11-15T04:45:45;37.70;;;17.35;;
45792;SDS011;31495;42.740;22.908;2022-11-15T04:46:45;36.10;;;15.45;;
45792;SDS011;31495;42.740;22.908;2022-11-15T04:47:45;35.60;;;15.63;;
45792;SDS011;31495;42.740;22.908;2022-11-15T04:48:45;36.10;;;15.90;;
45792;SDS011;31495;42.740;22.908;2022-11-15T04:49:44;39.65;;;17.75;;
45792;SDS011;31495;42.740;22.908;2022-11-15T04:50:44;34.08;;;16.55;;
45792;SDS011;31495;42.740;22.908;2022-11-15T04:51:43;35.75;;;18.00;;
45792;SDS011;31495;42.740;22.908;2022-11-15T04:52:44;36.17;;;17.65;;
45792;SDS011;31495;42.740;22.908;2022-11-15T04:53:50;37.85;;;15.88;;
45792;SDS011;31495;42.740;22.908;2022-11-15T04:54:50;34.75;;;16.65;;
45792;SDS011;31495;42.740;22.908;2022-11-15T04:55:49;34.00;;;16.13;;
45792;SDS011;31495;42.740;22.908;2022-11-15T04:56:49;37.50;;;17.52;;
45792;SDS011;31495;42.740;22.908;2022-11-15T04:57:56;34.88;;;16.92;;
45792;SDS011;31495;42.740;22.908;2022-11-15T04:58:57;37.63;;;16.77;;
45792;SDS011;31495;42.740;22.908;2022-11-15T04:59:56;32.47;;;16.25;;
45792;SDS011;31495;42.740;22.908;2022-11-15T05:00:56;37.53;;;18.15;;
45792;SDS011;31495;42.740;22.908;2022-11-15T05:01:55;37.67;;;17.65;;
45792;SDS011;31495;42.740;22.908;2022-11-15T05:02:55;32.70;;;16.38;;
45792;SDS011;31495;42.740;22.908;2022-11-15T05:04:14;30.40;;;14.75;;
45792;SDS011;31495;42.740;22.908;2022-11-15T05:05:20;30.50;;;15.20;;
45792;SDS011;31495;42.740;22.908;2022-11-15T05:06:20;34.67;;;16.27;;
45792;SDS011;31495;42.740;22.908;2022-11-15T05:07:20;36.00;;;16.83;;
45792;SDS011;31495;42.740;22.908;2022-11-15T05:08:19;33.25;;;16.15;;
45792;SDS011;31495;42.740;22.908;2022-11-15T05:09:19;34.28;;;17.05;;
45792;SDS011;31495;42.740;22.908;2022-11-15T05:10:19;33.65;;;15.20;;
45792;SDS011;31495;42.740;22.908;2022-11-15T05:11:19;42.45;;;17.05;;
45792;SDS011;31495;42.740;22.908;2022-11-15T05:12:19;34.88;;;16.85;;
45792;SDS011;31495;42.740;22.908;2022-11-15T05:13:19;35.45;;;18.60;;
45792;SDS011;31495;42.740;22.908;2022-11-15T05:14:18;43.10;;;19.63;;
45792;SDS011;31495;42.740;22.908;2022-11-15T05:15:18;44.58;;;21.23;;
45792;SDS011;31495;42.740;22.908;2022-11-15T05:16:17;43.20;;;20.30;;
45792;SDS011;31495;42.740;22.908;2022-11-15T05:17:17;46.10;;;20.52;;
45792;SDS011;31495;42.740;22.908;2022-11-15T05:18:16;45.30;;;20.83;;
45792;SDS011;31495;42.740;22.908;2022-11-15T05:19:15;44.83;;;22.98;;
45792;SDS011;31495;42.740;22.908;2022-11-15T05:20:15;52.50;;;23.92;;
45792;SDS011;31495;42.740;22.908;2022-11-15T05:21:14;48.92;;;22.23;;
45792;SDS011;31495;42.740;22.908;2022-11-15T05:22:14;47.50;;;22.20;;
45792;SDS011;31495;42.740;22.908;2022-11-15T05:23:13;45.00;;;21.80;;
45792;SDS011;31495;42.740;22.908;2022-11-15T05:24:13;49.85;;;21.48;;
45792;SDS011;31495;42.740;22.908;2022-11-15T05:25:12;42.83;;;21.48;;
45792;SDS011;31495;42.740;22.908;2022-11-15T05:26:12;49.47;;;23.30;;
45792;SDS011;31495;42.740;22.908;2022-11-15T05:27:13;49.13;;;22.13;;
45792;SDS011;31495;42.740;22.908;2022-11-15T05:28:13;50.05;;;22.83;;
45792;SDS011;31495;42.740;22.908;2022-11-15T05:29:12;51.17;;;22.85;;
45792;SDS011;31495;42.740;22.908;2022-11-15T05:30:12;52.38;;;23.90;;
45792;SDS011;31495;42.740;22.908;2022-11-15T05:31:15;57.75;;;23.92;;
45792;SDS011;31495;42.740;22.908;2022-11-15T05:32:15;49.17;;;23.85;;
45792;SDS011;31495;42.740;22.908;2022-11-15T05:33:17;52.67;;;23.02;;
45792;SDS011;31495;42.740;22.908;2022-11-15T05:34:16;42.38;;;21.77;;
45792;SDS011;31495;42.740;22.908;2022-11-15T05:35:25;51.10;;;23.27;;
45792;SDS011;31495;42.740;22.908;2022-11-15T05:36:35;47.15;;;22.15;;
45792;SDS011;31495;42.740;22.908;2022-11-15T05:37:37;45.22;;;22.25;;
45792;SDS011;31495;42.740;22.908;2022-11-15T05:38:37;46.10;;;21.60;;
45792;SDS011;31495;42.740;22.908;2022-11-15T05:39:36;49.35;;;22.13;;
45792;SDS011;31495;42.740;22.908;2022-11-15T05:40:36;51.50;;;23.83;;
45792;SDS011;31495;42.740;22.908;2022-11-15T05:41:37;48.42;;;22.85;;
45792;SDS011;31495;42.740;22.908;2022-11-15T05:42:48;51.35;;;20.83;;
45792;SDS011;31495;42.740;22.908;2022-11-15T05:43:47;42.33;;;20.65;;
45792;SDS011;31495;42.740;22.908;2022-11-15T05:44:49;49.42;;;22.95;;
45792;SDS011;31495;42.740;22.908;2022-11-15T05:45:49;47.85;;;23.02;;
45792;SDS011;31495;42.740;22.908;2022-11-15T05:46:49;47.15;;;22.20;;
45792;SDS011;31495;42.740;22.908;2022-11-15T05:47:52;45.75;;;20.92;;
45792;SDS011;31495;42.740;22.908;2022-11-15T05:48:53;44.70;;;20.25;;
45792;SDS011;31495;42.740;22.908;2022-11-15T05:49:55;42.97;;;20.85;;
45792;SDS011;31495;42.740;22.908;2022-11-15T05:50:56;38.83;;;19.08;;
45792;SDS011;31495;42.740;22.908;2022-11-15T05:51:56;47.58;;;22.05;;
45792;SDS011;31495;42.740;22.908;2022-11-15T05:52:57;44.80;;;20.90;;
45792;SDS011;31495;42.740;22.908;2022-11-15T05:53:57;45.50;;;22.23;;
45792;SDS011;31495;42.740;22.908;2022-11-15T05:54:57;47.08;;;22.42;;
45792;SDS011;31495;42.740;22.908;2022-11-15T05:55:58;46.30;;;21.05;;
45792;SDS011;31495;42.740;22.908;2022-11-15T05:56:57;42.08;;;22.60;;
45792;SDS011;31495;42.740;22.908;2022-11-15T05:57:57;44.75;;;21.52;;
45792;SDS011;31495;42.740;22.908;2022-11-15T05:58:56;46.08;;;22.10;;
45792;SDS011;31495;42.740;22.908;2022-11-15T05:59:57;47.80;;;21.25;;
45792;SDS011;31495;42.740;22.908;2022-11-15T06:00:57;45.25;;;21.63;;
45792;SDS011;31495;42.740;22.908;2022-11-15T06:01:56;41.63;;;21.75;;
45792;SDS011;31495;42.740;22.908;2022-11-15T06:02:56;45.00;;;22.63;;
45792;SDS011;31495;42.740;22.908;2022-11-15T06:03:56;50.08;;;22.05;;
45792;SDS011;31495;42.740;22.908;2022-11-15T06:04:55;61.28;;;24.65;;
45792;SDS011;31495;42.740;22.908;2022-11-15T06:05:55;51.83;;;23.17;;
45792;SDS011;31495;42.740;22.908;2022-11-15T06:06:56;46.80;;;21.95;;
45792;SDS011;31495;42.740;22.908;2022-11-15T06:07:58;50.65;;;23.63;;
45792;SDS011;31495;42.740;22.908;2022-11-15T06:08:57;45.72;;;22.52;;
45792;SDS011;31495;42.740;22.908;2022-11-15T06:09:57;49.65;;;22.65;;
45792;SDS011;31495;42.740;22.908;2022-11-15T06:10:56;53.13;;;23.85;;
45792;SDS011;31495;42.740;22.908;2022-11-15T06:11:56;57.15;;;23.75;;
45792;SDS011;31495;42.740;22.908;2022-11-15T06:12:56;44.05;;;22.95;;
45792;SDS011;31495;42.740;22.908;2022-11-15T06:14:02;53.60;;;26.85;;
45792;SDS011;31495;42.740;22.908;2022-11-15T06:15:01;53.92;;;30.20;;
45792;SDS011;31495;42.740;22.908;2022-11-15T06:16:01;51.90;;;25.92;;
45792;SDS011;31495;42.740;22.908;2022-11-15T06:17:01;51.50;;;25.92;;
45792;SDS011;31495;42.740;22.908;2022-11-15T06:18:02;53.58;;;24.50;;
45792;SDS011;31495;42.740;22.908;2022-11-15T06:19:01;52.70;;;25.00;;
45792;SDS011;31495;42.740;22.908;2022-11-15T06:20:01;51.30;;;24.58;;
45792;SDS011;31495;42.740;22.908;2022-11-15T06:21:00;53.08;;;25.83;;
45792;SDS011;31495;42.740;22.908;2022-11-15T06:22:00;49.38;;;23.33;;
45792;SDS011;31495;42.740;22.908;2022-11-15T06:23:00;52.63;;;26.05;;
45792;SDS011;31495;42.740;22.908;2022-11-15T06:24:01;60.90;;;26.58;;
45792;SDS011;31495;42.740;22.908;2022-11-15T06:25:00;61.15;;;27.77;;
45792;SDS011;31495;42.740;22.908;2022-11-15T06:26:00;76.32;;;35.17;;
45792;SDS011;31495;42.740;22.908;2022-11-15T06:27:00;86.88;;;38.80;;
45792;SDS011;31495;42.740;22.908;2022-11-15T06:28:00;83.10;;;35.13;;
45792;SDS011;31495;42.740;22.908;2022-11-15T06:28:59;63.70;;;31.23;;